Time;durP1;ratioP1;P1;durP2;ratioP2;P2;SDS_P1;SDS_P2;PMS_P1;PMS_P2;Temp;Humidity;BMP_temperature;BMP_pressure;BME280_temperature;BME280_humidity;BME280_pressure;Samples;Min_cycle;Max_cycle;Signal;HPM_P1;HPM_P2
2023/08/12 00:00:46;;;;;;;;;;;21.10;59.10;;;;;;4950589;28;86539;-47
2023/08/12 00:03:11;;;;;;;;;;;21.10;59.10;;;;;;4951024;28;88322;-45
2023/08/12 00:05:38;;;;;;;;;;;21.10;59.10;;;;;;4953678;28;87145;-45
2023/08/12 00:08:03;;;;;;;;;;;21.10;59.20;;;;;;4949012;28;89055;-44
2023/08/12 00:10:29;;;;;;;;;;;21.00;59.10;;;;;;4951926;28;87821;-46
2023/08/12 00:12:54;;;;;;;;;;;21.00;59.10;;;;;;4952406;28;87971;-45
2023/08/12 00:15:20;;;;;;;;;;;21.00;59.10;;;;;;4953353;28;87445;-44
2023/08/12 00:17:46;;;;;;;;;;;21.00;59.10;;;;;;4947231;28;86955;-47
2023/08/12 00:20:12;;;;;;;;;;;21.00;59.10;;;;;;4956894;28;87036;-50
2023/08/12 00:22:38;;;;;;;;;;;21.00;59.10;;;;;;4948742;28;88141;-46
2023/08/12 00:25:04;;;;;;;;;;;21.00;59.10;;;;;;4953952;28;86402;-44
2023/08/12 00:27:30;;;;;;;;;;;21.00;59.10;;;;;;4952079;28;87339;-46
2023/08/12 00:29:55;;;;;;;;;;;21.00;59.10;;;;;;4952638;28;88131;-46
2023/08/12 00:32:21;;;;;;;;;;;21.00;59.10;;;;;;4952729;28;88141;-45
2023/08/12 00:34:46;;;;;;;;;;;21.00;59.10;;;;;;4951257;28;88543;-46
2023/08/12 00:37:12;;;;;;;;;;;20.90;59.10;;;;;;4951366;28;88295;-47
2023/08/12 00:39:37;;;;;;;;;;;20.90;59.10;;;;;;4956851;28;87407;-44
2023/08/12 00:42:03;;;;;;;;;;;20.90;59.00;;;;;;4950478;28;88242;-47
2023/08/12 00:44:28;;;;;;;;;;;20.90;59.10;;;;;;4949940;28;87149;-49
2023/08/12 00:46:55;;;;;;;;;;;20.90;59.10;;;;;;4952322;28;87598;-44
2023/08/12 00:49:20;;;;;;;;;;;20.90;59.10;;;;;;4954352;28;87155;-47
2023/08/12 00:51:47;;;;;;;;;;;20.90;59.10;;;;;;4952089;28;87135;-47
2023/08/12 00:54:14;;;;;;;;;;;20.80;59.00;;;;;;4950774;28;87623;-48
2023/08/12 00:56:40;;;;;;;;;;;20.90;59.10;;;;;;4952811;28;88969;-47
2023/08/12 00:59:08;;;;;;;;;;;20.90;59.00;;;;;;4946671;28;87192;-46
2023/08/12 01:01:34;;;;;;;;;;;20.80;59.00;;;;;;4950651;28;87733;-47
2023/08/12 01:04:00;;;;;;;;;;;20.80;59.00;;;;;;4952550;28;87256;-44
2023/08/12 01:06:25;;;;;;;;;;;20.80;59.00;;;;;;4951432;28;87433;-46
2023/08/12 01:08:51;;;;;;;;;;;20.80;59.00;;;;;;4950823;28;87670;-46
2023/08/12 01:11:20;;;;;;;;;;;20.80;59.00;;;;;;4950876;28;87248;-47
2023/08/12 01:13:58;;;;;;;;;;;20.80;59.00;;;;;;4949432;28;87379;-49
2023/08/12 01:16:26;;;;;;;;;;;20.80;59.00;;;;;;4953714;28;88096;-47
2023/08/12 01:18:52;;;;;;;;;;;20.70;59.00;;;;;;4954739;28;87100;-47
2023/08/12 01:21:21;;;;;;;;;;;20.70;59.00;;;;;;4952809;28;87917;-46
2023/08/12 01:23:46;;;;;;;;;;;20.70;59.00;;;;;;4954566;28;88287;-46
2023/08/12 01:26:12;;;;;;;;;;;20.70;59.00;;;;;;4955887;28;87503;-46
2023/08/12 01:28:37;;;;;;;;;;;20.70;59.00;;;;;;4952759;28;90974;-45
2023/08/12 01:31:12;;;;;;;;;;;20.70;59.00;;;;;;4952386;28;87033;-46
2023/08/12 01:33:52;;;;;;;;;;;20.70;59.00;;;;;;4953720;28;87621;-48
2023/08/12 01:36:19;;;;;;;;;;;20.70;58.90;;;;;;4953924;28;87821;-45
2023/08/12 01:38:48;;;;;;;;;;;20.60;58.90;;;;;;4952634;28;87551;-47
2023/08/12 01:41:15;;;;;;;;;;;20.60;58.90;;;;;;4956348;28;87025;-47
2023/08/12 01:43:41;;;;;;;;;;;20.60;58.90;;;;;;4952890;28;88257;-47
2023/08/12 01:46:07;;;;;;;;;;;20.60;58.90;;;;;;4955298;28;88096;-47
2023/08/12 01:48:32;;;;;;;;;;;20.60;58.90;;;;;;4952729;28;88233;-47
2023/08/12 01:50:58;;;;;;;;;;;20.60;58.90;;;;;;4954645;28;87619;-45
2023/08/12 01:53:23;;;;;;;;;;;20.60;58.90;;;;;;4953146;28;87919;-46
2023/08/12 01:55:49;;;;;;;;;;;20.60;58.90;;;;;;4952988;28;88009;-46
2023/08/12 01:58:14;;;;;;;;;;;20.60;58.90;;;;;;4956194;28;86932;-44
2023/08/12 02:00:40;;;;;;;;;;;20.60;59.00;;;;;;4948852;28;87625;-46
2023/08/12 02:03:06;;;;;;;;;;;20.50;58.90;;;;;;4953310;28;87290;-46
2023/08/12 02:05:32;;;;;;;;;;;20.50;58.90;;;;;;4955052;28;87097;-45
2023/08/12 02:07:58;;;;;;;;;;;20.50;58.90;;;;;;4954531;28;87382;-47
2023/08/12 02:10:24;;;;;;;;;;;20.50;58.90;;;;;;4953770;28;88210;-45
2023/08/12 02:12:49;;;;;;;;;;;20.50;58.90;;;;;;4953432;28;88378;-46
2023/08/12 02:15:15;;;;;;;;;;;20.50;58.80;;;;;;4954995;28;88264;-49
2023/08/12 02:17:41;;;;;;;;;;;20.50;58.90;;;;;;4953517;28;87232;-46
2023/08/12 02:20:06;;;;;;;;;;;20.40;58.90;;;;;;4950417;28;88063;-45
2023/08/12 02:22:32;;;;;;;;;;;20.40;58.90;;;;;;4952705;28;88804;-46
2023/08/12 02:24:58;;;;;;;;;;;20.40;58.90;;;;;;4953192;28;87497;-45
2023/08/12 02:27:23;;;;;;;;;;;20.40;58.90;;;;;;4957277;28;86533;-45
2023/08/12 02:29:49;;;;;;;;;;;20.40;58.90;;;;;;4954102;28;87143;-46
2023/08/12 02:32:14;;;;;;;;;;;20.40;58.90;;;;;;4951501;28;87154;-47
2023/08/12 02:34:40;;;;;;;;;;;20.40;58.90;;;;;;4946695;28;89355;-44
2023/08/12 02:37:05;;;;;;;;;;;20.40;58.90;;;;;;4952285;28;87270;-45
2023/08/12 02:39:31;;;;;;;;;;;20.40;58.90;;;;;;4951334;28;87670;-48
2023/08/12 02:41:56;;;;;;;;;;;20.30;58.80;;;;;;4954675;28;88092;-44
2023/08/12 02:44:22;;;;;;;;;;;20.30;58.90;;;;;;4952778;28;87090;-45
2023/08/12 02:46:47;;;;;;;;;;;20.30;58.90;;;;;;4951969;28;87533;-46
2023/08/12 02:49:13;;;;;;;;;;;20.30;58.90;;;;;;4956618;28;88225;-50
2023/08/12 02:51:38;;;;;;;;;;;20.30;58.90;;;;;;4953852;28;87894;-48
2023/08/12 02:54:04;;;;;;;;;;;20.30;58.80;;;;;;4949838;28;88146;-50
2023/08/12 02:56:29;;;;;;;;;;;20.30;58.80;;;;;;4952291;28;87138;-44
2023/08/12 02:58:55;;;;;;;;;;;20.20;58.80;;;;;;4954805;28;88295;-46
2023/08/12 03:01:21;;;;;;;;;;;20.20;58.80;;;;;;4951011;28;87682;-50
2023/08/12 03:03:46;;;;;;;;;;;20.20;58.80;;;;;;4955065;28;87110;-47
2023/08/12 03:06:12;;;;;;;;;;;20.20;58.70;;;;;;4952609;28;87397;-47
2023/08/12 03:08:37;;;;;;;;;;;20.20;58.70;;;;;;4952348;28;87132;-45
2023/08/12 03:11:03;;;;;;;;;;;20.20;58.80;;;;;;4956558;28;87034;-45
2023/08/12 03:13:29;;;;;;;;;;;20.10;58.80;;;;;;4952326;28;88077;-48
2023/08/12 03:15:54;;;;;;;;;;;20.10;58.80;;;;;;4955143;28;86336;-45
2023/08/12 03:18:21;;;;;;;;;;;20.10;58.80;;;;;;4951292;28;87499;-47
2023/08/12 03:20:46;;;;;;;;;;;20.10;58.80;;;;;;4954508;28;87490;-46
2023/08/12 03:23:12;;;;;;;;;;;20.10;58.80;;;;;;4950410;28;87958;-45
2023/08/12 03:25:37;;;;;;;;;;;20.10;58.80;;;;;;4953746;28;88493;-46
2023/08/12 03:28:03;;;;;;;;;;;20.10;58.80;;;;;;4952490;28;87750;-50
2023/08/12 03:30:29;;;;;;;;;;;20.10;58.80;;;;;;4945365;28;87108;-47
2023/08/12 03:32:54;;;;;;;;;;;20.10;58.80;;;;;;4943464;28;87181;-47
2023/08/12 03:35:20;;;;;;;;;;;20.10;58.80;;;;;;4949918;28;87753;-45
2023/08/12 03:37:45;;;;;;;;;;;20.00;58.80;;;;;;4953646;28;87385;-44
2023/08/12 03:40:11;;;;;;;;;;;20.00;58.80;;;;;;4948160;28;88366;-47
2023/08/12 03:42:36;;;;;;;;;;;20.00;58.70;;;;;;4943170;28;87276;-45
2023/08/12 03:45:02;;;;;;;;;;;20.00;58.70;;;;;;4951666;28;87540;-49
2023/08/12 03:47:27;;;;;;;;;;;20.00;58.80;;;;;;4950531;28;88998;-45
2023/08/12 03:49:53;;;;;;;;;;;19.90;58.70;;;;;;4950344;28;87791;-45
2023/08/12 03:52:18;;;;;;;;;;;19.90;58.70;;;;;;4946016;28;87607;-45
2023/08/12 03:54:44;;;;;;;;;;;20.00;58.80;;;;;;4954375;28;87948;-45
2023/08/12 03:57:10;;;;;;;;;;;19.90;58.70;;;;;;4951260;28;87429;-47
2023/08/12 03:59:36;;;;;;;;;;;19.90;58.70;;;;;;4934573;28;88797;-50
2023/08/12 04:02:01;;;;;;;;;;;19.90;58.70;;;;;;4947942;28;87129;-47
2023/08/12 04:04:27;;;;;;;;;;;19.90;58.70;;;;;;4952072;28;87373;-50
2023/08/12 04:06:53;;;;;;;;;;;19.90;58.70;;;;;;4945496;28;88328;-47
2023/08/12 04:09:19;;;;;;;;;;;19.90;58.60;;;;;;4944516;28;87970;-45
2023/08/12 04:11:45;;;;;;;;;;;19.90;58.60;;;;;;4947721;28;88553;-45
2023/08/12 04:14:10;;;;;;;;;;;19.90;58.70;;;;;;4953225;28;88134;-45
2023/08/12 04:16:36;;;;;;;;;;;19.90;58.60;;;;;;4947579;28;87151;-49
2023/08/12 04:19:01;;;;;;;;;;;19.90;58.70;;;;;;4938698;28;88371;-44
2023/08/12 04:21:27;;;;;;;;;;;19.80;58.70;;;;;;4949842;28;87139;-45
2023/08/12 04:23:53;;;;;;;;;;;19.80;58.60;;;;;;4951435;28;87601;-46
2023/08/12 04:26:18;;;;;;;;;;;19.80;58.60;;;;;;4942587;28;88909;-45
2023/08/12 04:28:44;;;;;;;;;;;19.80;58.70;;;;;;4944399;28;86843;-45
2023/08/12 04:31:09;;;;;;;;;;;19.80;58.70;;;;;;4950131;28;87105;-47
2023/08/12 04:33:35;;;;;;;;;;;19.80;58.70;;;;;;4952525;28;88376;-45
2023/08/12 04:36:00;;;;;;;;;;;19.80;58.60;;;;;;4950519;28;88439;-45
2023/08/12 04:38:26;;;;;;;;;;;19.80;58.70;;;;;;4947358;28;88867;-45
2023/08/12 04:40:55;;;;;;;;;;;19.70;58.70;;;;;;4950503;28;87085;-48
2023/08/12 04:43:20;;;;;;;;;;;19.80;58.70;;;;;;4951824;28;87209;-48
2023/08/12 04:45:46;;;;;;;;;;;19.70;58.70;;;;;;4940281;28;87859;-47
2023/08/12 04:48:12;;;;;;;;;;;19.70;58.70;;;;;;4946518;28;88983;-45
2023/08/12 04:50:38;;;;;;;;;;;19.70;58.70;;;;;;4952984;28;87513;-50
2023/08/12 04:53:04;;;;;;;;;;;19.70;58.70;;;;;;4955651;28;87013;-52
2023/08/12 04:55:30;;;;;;;;;;;19.70;58.80;;;;;;4946071;28;87205;-51
2023/08/12 04:57:56;;;;;;;;;;;19.70;58.80;;;;;;4955169;28;88251;-46
2023/08/12 05:00:21;;;;;;;;;;;19.70;58.80;;;;;;4954126;28;88015;-45
2023/08/12 05:02:47;;;;;;;;;;;19.70;58.80;;;;;;4956756;28;88676;-45
2023/08/12 05:05:13;;;;;;;;;;;19.70;58.80;;;;;;4949714;28;88056;-47
2023/08/12 05:07:38;;;;;;;;;;;19.70;58.80;;;;;;4958166;28;87151;-45
2023/08/12 05:10:04;;;;;;;;;;;19.60;58.70;;;;;;4952050;28;87155;-47
2023/08/12 05:12:30;;;;;;;;;;;19.60;58.80;;;;;;4953336;28;88223;-44
2023/08/12 05:14:55;;;;;;;;;;;19.60;58.80;;;;;;4955244;28;87360;-45
2023/08/12 05:17:21;;;;;;;;;;;19.60;58.90;;;;;;4954317;28;87606;-46
2023/08/12 05:19:46;;;;;;;;;;;19.60;58.90;;;;;;4949180;28;88852;-45
2023/08/12 05:22:12;;;;;;;;;;;19.60;58.90;;;;;;4952438;28;87376;-45
2023/08/12 05:24:37;;;;;;;;;;;19.60;59.00;;;;;;4952949;28;89236;-49
2023/08/12 05:27:04;;;;;;;;;;;19.60;58.90;;;;;;4947301;28;87090;-50
2023/08/12 05:29:30;;;;;;;;;;;19.60;59.00;;;;;;4948508;28;87828;-47
2023/08/12 05:31:55;;;;;;;;;;;19.60;59.00;;;;;;4947817;28;88063;-50
2023/08/12 05:34:21;;;;;;;;;;;19.60;59.10;;;;;;4953474;28;87005;-44
2023/08/12 05:36:46;;;;;;;;;;;19.60;59.00;;;;;;4949598;28;87611;-45
2023/08/12 05:39:12;;;;;;;;;;;19.60;59.00;;;;;;4944603;28;88776;-47
2023/08/12 05:41:37;;;;;;;;;;;19.60;59.00;;;;;;4953250;28;86594;-50
2023/08/12 05:44:04;;;;;;;;;;;19.60;59.10;;;;;;4954228;28;88104;-46
2023/08/12 05:46:29;;;;;;;;;;;19.50;59.10;;;;;;4948124;28;87151;-46
2023/08/12 05:48:55;;;;;;;;;;;19.60;59.10;;;;;;4948415;28;88417;-45
2023/08/12 05:51:20;;;;;;;;;;;19.60;59.10;;;;;;4951758;28;88245;-48
2023/08/12 05:53:46;;;;;;;;;;;19.60;59.20;;;;;;4955865;28;87651;-48
2023/08/12 05:56:13;;;;;;;;;;;19.50;59.10;;;;;;4940757;28;89074;-46
2023/08/12 05:58:38;;;;;;;;;;;19.50;59.10;;;;;;4951243;28;87698;-45
2023/08/12 06:01:04;;;;;;;;;;;19.50;59.10;;;;;;4951792;28;87025;-45
2023/08/12 06:03:29;;;;;;;;;;;19.50;59.20;;;;;;4957170;28;87083;-46
2023/08/12 06:05:55;;;;;;;;;;;19.50;59.30;;;;;;4951445;28;86343;-48
2023/08/12 06:08:20;;;;;;;;;;;19.50;59.20;;;;;;4939017;28;87201;-47
2023/08/12 06:10:46;;;;;;;;;;;19.50;59.30;;;;;;4948548;28;88257;-49
2023/08/12 06:13:11;;;;;;;;;;;19.50;59.40;;;;;;4952614;28;88055;-49
2023/08/12 06:15:37;;;;;;;;;;;19.50;59.90;;;;;;4938053;28;87691;-48
2023/08/12 06:18:03;;;;;;;;;;;19.60;59.30;;;;;;4948164;28;88079;-47
2023/08/12 06:20:28;;;;;;;;;;;19.50;59.20;;;;;;4952789;28;87136;-47
2023/08/12 06:22:54;;;;;;;;;;;19.60;59.30;;;;;;4955266;28;87436;-49
2023/08/12 06:25:19;;;;;;;;;;;19.50;59.20;;;;;;4950019;28;88991;-45
2023/08/12 06:27:45;;;;;;;;;;;19.50;59.30;;;;;;4942457;28;87645;-47
2023/08/12 06:30:12;;;;;;;;;;;19.60;59.20;;;;;;4952472;28;87335;-47
2023/08/12 06:32:38;;;;;;;;;;;19.50;59.20;;;;;;4954317;28;87151;-47
2023/08/12 06:35:03;;;;;;;;;;;19.60;59.40;;;;;;4947375;28;87714;-47
2023/08/12 06:37:29;;;;;;;;;;;19.60;59.20;;;;;;4945557;28;89167;-47
2023/08/12 06:39:55;;;;;;;;;;;19.60;59.40;;;;;;4951420;28;87130;-47
2023/08/12 06:42:21;;;;;;;;;;;19.50;59.30;;;;;;4947599;28;88528;-47
2023/08/12 06:44:49;;;;;;;;;;;19.60;59.30;;;;;;4946359;28;88183;-48
2023/08/12 06:47:15;;;;;;;;;;;19.50;59.40;;;;;;4945048;28;87695;-46
2023/08/12 06:49:40;;;;;;;;;;;19.50;59.30;;;;;;4954917;28;88021;-47
2023/08/12 06:52:05;;;;;;;;;;;19.60;59.30;;;;;;4943652;28;87814;-46
2023/08/12 06:54:31;;;;;;;;;;;19.60;59.40;;;;;;4947713;28;87506;-48
2023/08/12 06:56:57;;;;;;;;;;;19.60;59.40;;;;;;4946693;28;88132;-47
2023/08/12 06:59:22;;;;;;;;;;;19.60;59.40;;;;;;4953664;28;87030;-46
2023/08/12 07:01:48;;;;;;;;;;;19.50;59.40;;;;;;4946220;28;88887;-46
2023/08/12 07:04:13;;;;;;;;;;;19.50;59.50;;;;;;4950318;28;87141;-50
2023/08/12 07:06:39;;;;;;;;;;;19.50;59.40;;;;;;4955185;28;87468;-47
2023/08/12 07:09:04;;;;;;;;;;;19.60;59.40;;;;;;4951264;28;88087;-45
2023/08/12 07:11:30;;;;;;;;;;;19.60;59.50;;;;;;4938910;28;87954;-48
2023/08/12 07:13:55;;;;;;;;;;;19.50;59.50;;;;;;4949407;28;87108;-48
2023/08/12 07:16:21;;;;;;;;;;;19.60;60.10;;;;;;4950924;28;88241;-47
2023/08/12 07:18:46;;;;;;;;;;;19.60;59.30;;;;;;4953383;28;86452;-45
2023/08/12 07:21:12;;;;;;;;;;;19.60;59.50;;;;;;4951183;28;87641;-47
2023/08/12 07:23:37;;;;;;;;;;;19.60;59.50;;;;;;4939660;28;88269;-47
2023/08/12 07:26:03;;;;;;;;;;;19.50;59.50;;;;;;4948284;28;88509;-48
2023/08/12 07:28:28;;;;;;;;;;;19.50;59.40;;;;;;4957069;28;88493;-46
2023/08/12 07:30:54;;;;;;;;;;;19.60;59.50;;;;;;4943889;28;87991;-47
2023/08/12 07:33:20;;;;;;;;;;;19.60;59.40;;;;;;4946081;28;87545;-46
2023/08/12 07:35:46;;;;;;;;;;;19.60;59.50;;;;;;4948378;28;87293;-46
2023/08/12 07:38:11;;;;;;;;;;;19.60;59.40;;;;;;4952569;28;87134;-47
2023/08/12 07:40:37;;;;;;;;;;;19.60;59.30;;;;;;4946253;28;87206;-45
2023/08/12 07:43:02;;;;;;;;;;;19.60;59.30;;;;;;4941714;28;87708;-45
2023/08/12 07:45:28;;;;;;;;;;;19.60;59.40;;;;;;4948937;28;87201;-47
2023/08/12 07:47:53;;;;;;;;;;;19.60;59.40;;;;;;4952647;28;87558;-51
2023/08/12 07:50:20;;;;;;;;;;;19.60;59.40;;;;;;4951577;28;90732;-49
2023/08/12 07:52:46;;;;;;;;;;;19.60;59.50;;;;;;4943414;28;87561;-46
2023/08/12 07:55:12;;;;;;;;;;;19.60;59.50;;;;;;4947494;28;89110;-47
2023/08/12 07:57:37;;;;;;;;;;;19.60;59.30;;;;;;4951271;28;87176;-50
2023/08/12 08:00:03;;;;;;;;;;;19.60;59.30;;;;;;4949754;28;87539;-50
2023/08/12 08:02:29;;;;;;;;;;;19.60;59.40;;;;;;4945920;28;88078;-45
2023/08/12 08:04:54;;;;;;;;;;;19.60;59.30;;;;;;4951458;28;87160;-46
2023/08/12 08:07:20;;;;;;;;;;;19.60;59.50;;;;;;4946373;28;87520;-48
2023/08/12 08:09:45;;;;;;;;;;;19.60;59.50;;;;;;4945195;28;88247;-49
2023/08/12 08:12:11;;;;;;;;;;;19.60;59.40;;;;;;4949120;28;87112;-47
2023/08/12 08:14:37;;;;;;;;;;;19.60;59.50;;;;;;4950528;28;89100;-46
2023/08/12 08:17:03;;;;;;;;;;;19.60;59.50;;;;;;4954395;28;87538;-50
2023/08/12 08:19:29;;;;;;;;;;;19.60;59.50;;;;;;4943733;28;87550;-44
2023/08/12 08:21:54;;;;;;;;;;;19.60;59.50;;;;;;4951341;28;88111;-47
2023/08/12 08:24:20;;;;;;;;;;;19.60;59.30;;;;;;4954467;28;87121;-48
2023/08/12 08:26:46;;;;;;;;;;;19.60;59.80;;;;;;4957104;28;87611;-46
2023/08/12 08:29:12;;;;;;;;;;;19.60;59.80;;;;;;4946732;28;88138;-49
2023/08/12 08:31:38;;;;;;;;;;;19.60;59.80;;;;;;4946883;28;86386;-50
2023/08/12 08:34:04;;;;;;;;;;;19.60;59.50;;;;;;4957819;28;86971;-47
2023/08/12 08:36:29;;;;;;;;;;;19.60;60.00;;;;;;4952614;28;87547;-48
2023/08/12 08:38:55;;;;;;;;;;;19.60;59.60;;;;;;4946500;28;87980;-47
2023/08/12 08:41:21;;;;;;;;;;;19.60;60.30;;;;;;4946971;28;88153;-45
2023/08/12 08:43:47;;;;;;;;;;;19.60;60.30;;;;;;4957054;28;87082;-49
2023/08/12 08:46:16;;;;;;;;;;;19.60;60.30;;;;;;4952778;28;87716;-47
2023/08/12 08:48:46;;;;;;;;;;;19.60;60.50;;;;;;4949612;28;88135;-48
2023/08/12 08:51:12;;;;;;;;;;;19.70;60.30;;;;;;4950142;28;89196;-47
2023/08/12 08:53:39;;;;;;;;;;;19.70;60.20;;;;;;4957257;28;87240;-48
2023/08/12 08:56:11;;;;;;;;;;;19.70;60.30;;;;;;4948534;28;86480;-47
2023/08/12 08:58:37;;;;;;;;;;;19.70;60.10;;;;;;4948081;28;88553;-49
2023/08/12 09:01:06;;;;;;;;;;;19.70;60.10;;;;;;4950130;28;88053;-45
2023/08/12 09:03:32;;;;;;;;;;;19.70;60.30;;;;;;4954489;28;88002;-47
2023/08/12 09:05:57;;;;;;;;;;;19.70;60.20;;;;;;4942454;28;88286;-49
2023/08/12 09:08:24;;;;;;;;;;;19.70;60.30;;;;;;4950095;28;88016;-45
2023/08/12 09:10:50;;;;;;;;;;;19.80;60.50;;;;;;4949466;28;87635;-48
2023/08/12 09:13:18;;;;;;;;;;;19.70;60.40;;;;;;4955341;28;89562;-46
2023/08/12 09:15:44;;;;;;;;;;;19.70;60.50;;;;;;4944776;28;88189;-45
2023/08/12 09:18:09;;;;;;;;;;;19.70;60.50;;;;;;4947219;28;87580;-46
2023/08/12 09:20:35;;;;;;;;;;;19.80;60.50;;;;;;4951686;28;87604;-48
2023/08/12 09:23:01;;;;;;;;;;;19.80;60.50;;;;;;4953337;28;87096;-46
2023/08/12 09:25:27;;;;;;;;;;;19.80;60.50;;;;;;4949549;28;87618;-45
2023/08/12 09:27:58;;;;;;;;;;;19.80;60.30;;;;;;4943846;28;88859;-48
2023/08/12 09:30:23;;;;;;;;;;;19.80;60.40;;;;;;4952392;28;86924;-45
2023/08/12 09:33:00;;;;;;;;;;;19.80;60.30;;;;;;4953018;28;87360;-44
2023/08/12 09:35:31;;;;;;;;;;;19.80;60.20;;;;;;4947184;28;90520;-46
2023/08/12 09:37:57;;;;;;;;;;;19.80;60.20;;;;;;4949547;28;87113;-47
2023/08/12 09:40:23;;;;;;;;;;;19.80;60.20;;;;;;4953446;28;88080;-47
2023/08/12 09:42:50;;;;;;;;;;;19.90;60.20;;;;;;4951235;28;87168;-47
2023/08/12 09:45:15;;;;;;;;;;;19.90;60.20;;;;;;4945785;28;87409;-48
2023/08/12 09:47:44;;;;;;;;;;;19.90;60.30;;;;;;4951609;28;88116;-48
2023/08/12 09:50:10;;;;;;;;;;;19.90;60.10;;;;;;4952508;28;87382;-46
2023/08/12 09:52:35;;;;;;;;;;;19.90;60.10;;;;;;4944432;28;88091;-50
2023/08/12 09:55:04;;;;;;;;;;;20.00;60.10;;;;;;4944965;28;88106;-46
2023/08/12 09:57:32;;;;;;;;;;;20.00;60.10;;;;;;4948748;28;87390;-45
2023/08/12 09:59:59;;;;;;;;;;;20.00;60.00;;;;;;4957118;28;86981;-45
2023/08/12 10:02:25;;;;;;;;;;;20.00;60.10;;;;;;4946147;28;87360;-47
2023/08/12 10:04:55;;;;;;;;;;;20.00;59.90;;;;;;4949656;28;87513;-46
2023/08/12 10:07:21;;;;;;;;;;;20.10;60.00;;;;;;4950352;28;88171;-47
2023/08/12 10:09:47;;;;;;;;;;;20.10;59.70;;;;;;4954083;28;86461;-48
2023/08/12 10:12:12;;;;;;;;;;;20.10;59.60;;;;;;4948162;28;87870;-46
2023/08/12 10:14:38;;;;;;;;;;;20.10;59.70;;;;;;4944975;28;88304;-51
2023/08/12 10:17:04;;;;;;;;;;;20.10;60.30;;;;;;4945803;28;88869;-46
2023/08/12 10:19:30;;;;;;;;;;;20.10;59.80;;;;;;4955217;28;88316;-47
2023/08/12 10:21:58;;;;;;;;;;;20.10;59.60;;;;;;4941798;28;87920;-46
2023/08/12 10:24:25;;;;;;;;;;;20.20;59.50;;;;;;4948183;28;88632;-48
2023/08/12 10:26:52;;;;;;;;;;;20.20;59.50;;;;;;4951684;28;87531;-45
2023/08/12 10:29:18;;;;;;;;;;;20.20;59.30;;;;;;4955402;28;87141;-45
2023/08/12 10:31:45;;;;;;;;;;;20.20;59.30;;;;;;4948811;28;88965;-47
2023/08/12 10:34:20;;;;;;;;;;;20.30;59.30;;;;;;4943291;28;87549;-48
2023/08/12 10:36:46;;;;;;;;;;;20.30;59.40;;;;;;4950639;28;87110;-49
2023/08/12 10:39:12;;;;;;;;;;;20.30;59.30;;;;;;4952122;28;89122;-48
2023/08/12 10:41:38;;;;;;;;;;;20.30;59.20;;;;;;4944793;28;88225;-49
2023/08/12 10:44:05;;;;;;;;;;;20.30;59.20;;;;;;4947465;28;88706;-46
2023/08/12 10:46:31;;;;;;;;;;;20.30;59.20;;;;;;4954205;28;88236;-45
2023/08/12 10:48:59;;;;;;;;;;;20.30;59.30;;;;;;4952831;28;87126;-51
2023/08/12 10:51:40;;;;;;;;;;;20.30;59.20;;;;;;4937855;28;88974;-47
2023/08/12 10:54:18;;;;;;;;;;;20.40;59.20;;;;;;4950472;28;87200;-47
2023/08/12 10:57:12;;;;;;;;;;;20.40;59.20;;;;;;4947307;28;87022;-48
2023/08/12 10:59:44;;;;;;;;;;;20.40;59.10;;;;;;4936765;28;87622;-48
2023/08/12 11:02:18;;;;;;;;;;;20.40;59.10;;;;;;4937907;28;88879;-51
2023/08/12 11:04:44;;;;;;;;;;;20.50;59.20;;;;;;4953018;28;87147;-46
2023/08/12 11:07:16;;;;;;;;;;;20.50;59.10;;;;;;4951196;28;90523;-48
2023/08/12 11:09:42;;;;;;;;;;;20.50;59.10;;;;;;4946175;28;87126;-47
2023/08/12 11:12:08;;;;;;;;;;;20.50;59.00;;;;;;4945054;28;87274;-46
2023/08/12 11:14:46;;;;;;;;;;;20.60;59.10;;;;;;4947638;28;87208;-48
2023/08/12 11:17:15;;;;;;;;;;;20.60;59.10;;;;;;4948506;28;87137;-46
2023/08/12 11:19:42;;;;;;;;;;;20.50;59.00;;;;;;4949804;28;88166;-47
2023/08/12 11:22:07;;;;;;;;;;;20.60;58.90;;;;;;4944155;28;88798;-49
2023/08/12 11:24:33;;;;;;;;;;;20.60;58.90;;;;;;4955036;28;86356;-45
2023/08/12 11:27:00;;;;;;;;;;;20.70;58.90;;;;;;4948531;28;87108;-46
2023/08/12 11:29:25;;;;;;;;;;;20.60;58.80;;;;;;4945050;28;87177;-46
2023/08/12 11:31:51;;;;;;;;;;;20.60;58.80;;;;;;4949404;28;88368;-48
2023/08/12 11:34:16;;;;;;;;;;;20.70;58.70;;;;;;4953296;28;88243;-48
2023/08/12 11:36:42;;;;;;;;;;;20.70;58.70;;;;;;4949851;28;87255;-45
2023/08/12 11:39:08;;;;;;;;;;;20.70;58.60;;;;;;4939617;28;87652;-47
2023/08/12 11:41:34;;;;;;;;;;;20.70;58.60;;;;;;4949799;28;88119;-47
2023/08/12 11:43:59;;;;;;;;;;;20.80;58.70;;;;;;4951053;28;87145;-44
2023/08/12 11:46:25;;;;;;;;;;;20.80;58.60;;;;;;4947587;28;88904;-48
2023/08/12 11:48:51;;;;;;;;;;;20.80;58.30;;;;;;4946954;28;87398;-43
2023/08/12 11:51:16;;;;;;;;;;;20.80;58.40;;;;;;4949035;28;88037;-48
2023/08/12 11:53:42;;;;;;;;;;;20.80;57.70;;;;;;4949748;28;88164;-46
2023/08/12 11:56:08;;;;;;;;;;;20.80;57.60;;;;;;4942674;28;88437;-51
2023/08/12 11:58:36;;;;;;;;;;;20.80;57.70;;;;;;4945700;28;88705;-49
2023/08/12 12:01:02;;;;;;;;;;;20.90;57.80;;;;;;4947701;28;87085;-48
2023/08/12 12:03:28;;;;;;;;;;;20.90;57.90;;;;;;4952743;28;87212;-46
2023/08/12 12:05:57;;;;;;;;;;;20.90;57.90;;;;;;4943529;28;87918;-45
2023/08/12 12:08:22;;;;;;;;;;;20.90;57.90;;;;;;4948786;28;88237;-48
2023/08/12 12:10:48;;;;;;;;;;;21.00;57.90;;;;;;4954601;28;87160;-48
2023/08/12 12:13:14;;;;;;;;;;;20.90;57.90;;;;;;4948312;28;88037;-45
2023/08/12 12:15:43;;;;;;;;;;;21.00;57.90;;;;;;4942163;28;87607;-49
2023/08/12 12:18:09;;;;;;;;;;;21.00;57.70;;;;;;4944205;28;87385;-50
2023/08/12 12:20:35;;;;;;;;;;;21.00;57.70;;;;;;4951927;28;89124;-48
2023/08/12 12:23:05;;;;;;;;;;;21.00;57.60;;;;;;4948382;28;87131;-44
2023/08/12 12:25:31;;;;;;;;;;;21.10;57.40;;;;;;4944230;28;87291;-45
2023/08/12 12:27:56;;;;;;;;;;;21.10;57.50;;;;;;4944866;28;88435;-50
2023/08/12 12:30:22;;;;;;;;;;;21.10;57.50;;;;;;4946842;28;87194;-45
2023/08/12 12:32:48;;;;;;;;;;;21.10;57.60;;;;;;4954592;28;87367;-48
2023/08/12 12:35:14;;;;;;;;;;;21.10;57.40;;;;;;4947043;28;87184;-46
2023/08/12 12:37:39;;;;;;;;;;;21.20;57.40;;;;;;4947767;28;90535;-49
2023/08/12 12:40:05;;;;;;;;;;;21.20;57.20;;;;;;4952000;28;88309;-47
2023/08/12 12:42:31;;;;;;;;;;;21.20;57.20;;;;;;4942713;28;87149;-47
2023/08/12 12:44:56;;;;;;;;;;;21.30;57.20;;;;;;4942986;28;88108;-49
2023/08/12 12:47:22;;;;;;;;;;;21.20;57.20;;;;;;4950569;28;88328;-47
2023/08/12 12:49:47;;;;;;;;;;;21.30;57.30;;;;;;4950502;28;87068;-48
2023/08/12 12:52:13;;;;;;;;;;;21.30;57.20;;;;;;4949825;28;87349;-48
2023/08/12 12:54:38;;;;;;;;;;;21.30;57.10;;;;;;4945448;28;87861;-48
2023/08/12 12:57:05;;;;;;;;;;;21.30;57.00;;;;;;4949953;28;87611;-46
2023/08/12 12:59:30;;;;;;;;;;;21.30;57.00;;;;;;4949517;28;88228;-48
2023/08/12 13:01:56;;;;;;;;;;;21.40;57.00;;;;;;4949777;28;86455;-49
2023/08/12 13:04:22;;;;;;;;;;;21.40;57.00;;;;;;4943911;28;88904;-50
2023/08/12 13:06:47;;;;;;;;;;;21.40;57.00;;;;;;4949473;28;88129;-51
2023/08/12 13:09:13;;;;;;;;;;;21.40;57.00;;;;;;4953307;28;88252;-46
2023/08/12 13:11:38;;;;;;;;;;;21.50;57.00;;;;;;4950352;28;90315;-52
2023/08/12 13:14:04;;;;;;;;;;;21.50;57.10;;;;;;4945977;28;87242;-48
2023/08/12 13:16:30;;;;;;;;;;;21.50;56.90;;;;;;4952651;28;87535;-47
2023/08/12 13:18:58;;;;;;;;;;;21.50;57.00;;;;;;4954488;28;88037;-48
2023/08/12 13:21:24;;;;;;;;;;;21.60;57.10;;;;;;4947064;28;87172;-48
2023/08/12 13:23:49;;;;;;;;;;;21.60;57.00;;;;;;4949980;28;87620;-46
2023/08/12 13:26:15;;;;;;;;;;;21.60;57.00;;;;;;4957045;28;87142;-49
2023/08/12 13:28:40;;;;;;;;;;;21.60;57.00;;;;;;4953144;28;87096;-50
2023/08/12 13:31:06;;;;;;;;;;;21.60;57.00;;;;;;4946163;28;88477;-49
2023/08/12 13:33:31;;;;;;;;;;;21.60;56.90;;;;;;4949159;28;88233;-46
2023/08/12 13:35:57;;;;;;;;;;;21.70;56.80;;;;;;4957417;28;87114;-51
2023/08/12 13:38:22;;;;;;;;;;;21.70;56.80;;;;;;4952248;28;88183;-49
2023/08/12 13:40:48;;;;;;;;;;;21.70;56.80;;;;;;4945027;28;88152;-52
2023/08/12 13:43:14;;;;;;;;;;;21.80;56.80;;;;;;4946854;28;87659;-48
2023/08/12 13:45:39;;;;;;;;;;;21.80;56.80;;;;;;4955214;28;88247;-49
2023/08/12 13:48:05;;;;;;;;;;;21.80;56.90;;;;;;4947255;28;87615;-48
2023/08/12 13:50:32;;;;;;;;;;;21.80;56.90;;;;;;4949786;28;87489;-50
2023/08/12 13:52:58;;;;;;;;;;;21.80;56.80;;;;;;4949212;28;88038;-46
2023/08/12 13:55:24;;;;;;;;;;;21.80;56.80;;;;;;4952552;28;87162;-49
2023/08/12 13:57:49;;;;;;;;;;;21.90;56.90;;;;;;4951626;28;88102;-51
2023/08/12 14:00:15;;;;;;;;;;;21.90;56.60;;;;;;4943167;28;88897;-53
2023/08/12 14:02:41;;;;;;;;;;;21.90;56.70;;;;;;4948142;28;87407;-48
2023/08/12 14:05:07;;;;;;;;;;;21.90;56.80;;;;;;4955791;28;87829;-47
2023/08/12 14:07:32;;;;;;;;;;;21.90;56.90;;;;;;4949677;28;87099;-47
2023/08/12 14:09:58;;;;;;;;;;;21.90;56.50;;;;;;4951237;28;88812;-50